sensor_id;sensor_type;location;lat;lon;timestamp;temperature;humidity
21944;DHT22;11136;48.778;9.126;2022-10-04T00:04:25;10.10;99.90
21944;DHT22;11136;48.778;9.126;2022-10-04T00:07:02;10.10;99.90
21944;DHT22;11136;48.778;9.126;2022-10-04T00:09:47;10.00;99.90
21944;DHT22;11136;48.778;9.126;2022-10-04T00:14:47;10.00;99.90
21944;DHT22;11136;48.778;9.126;2022-10-04T00:17:24;10.00;99.90
21944;DHT22;11136;48.778;9.126;2022-10-04T00:19:52;9.90;99.90
21944;DHT22;11136;48.778;9.126;2022-10-04T00:22:20;9.90;99.90
21944;DHT22;11136;48.778;9.126;2022-10-04T00:27:31;9.80;99.90
21944;DHT22;11136;48.778;9.126;2022-10-04T00:32:45;9.80;99.90
21944;DHT22;11136;48.778;9.126;2022-10-04T00:35:44;9.80;99.90
21944;DHT22;11136;48.778;9.126;2022-10-04T00:38:14;9.80;99.90
21944;DHT22;11136;48.778;9.126;2022-10-04T00:40:56;9.80;99.90
21944;DHT22;11136;48.778;9.126;2022-10-04T00:43:28;9.80;99.90
21944;DHT22;11136;48.778;9.126;2022-10-04T00:46:05;9.70;99.90
21944;DHT22;11136;48.778;9.126;2022-10-04T00:48:45;9.80;99.90
21944;DHT22;11136;48.778;9.126;2022-10-04T00:54:15;9.70;99.90
21944;DHT22;11136;48.778;9.126;2022-10-04T00:56:50;9.70;99.90
21944;DHT22;11136;48.778;9.126;2022-10-04T00:59:31;9.70;99.90
21944;DHT22;11136;48.778;9.126;2022-10-04T01:02:04;9.60;99.90
21944;DHT22;11136;48.778;9.126;2022-10-04T01:04:42;9.60;99.90
21944;DHT22;11136;48.778;9.126;2022-10-04T01:07:12;9.60;99.90
21944;DHT22;11136;48.778;9.126;2022-10-04T01:09:47;9.60;99.90
21944;DHT22;11136;48.778;9.126;2022-10-04T01:12:26;9.60;99.90
21944;DHT22;11136;48.778;9.126;2022-10-04T01:15:09;9.60;99.90
21944;DHT22;11136;48.778;9.126;2022-10-04T01:17:35;9.50;99.90
21944;DHT22;11136;48.778;9.126;2022-10-04T01:20:01;9.50;99.90
21944;DHT22;11136;48.778;9.126;2022-10-04T01:22:40;9.50;99.90
21944;DHT22;11136;48.778;9.126;2022-10-04T01:25:06;9.50;99.90
21944;DHT22;11136;48.778;9.126;2022-10-04T01:27:42;9.50;99.90
21944;DHT22;11136;48.778;9.126;2022-10-04T01:30:14;9.50;99.90
21944;DHT22;11136;48.778;9.126;2022-10-04T01:32:40;9.50;99.90
21944;DHT22;11136;48.778;9.126;2022-10-04T01:35:08;9.40;99.90
21944;DHT22;11136;48.778;9.126;2022-10-04T01:37:34;9.40;99.90
21944;DHT22;11136;48.778;9.126;2022-10-04T01:40:00;9.40;99.90
21944;DHT22;11136;48.778;9.126;2022-10-04T01:42:49;9.40;99.90
21944;DHT22;11136;48.778;9.126;2022-10-04T01:45:29;9.40;99.90
21944;DHT22;11136;48.778;9.126;2022-10-04T01:47:59;9.40;99.90
21944;DHT22;11136;48.778;9.126;2022-10-04T01:50:58;9.40;99.90
21944;DHT22;11136;48.778;9.126;2022-10-04T01:53:28;9.30;99.90
21944;DHT22;11136;48.778;9.126;2022-10-04T01:56:03;9.30;99.90
21944;DHT22;11136;48.778;9.126;2022-10-04T01:58:41;9.30;99.90
21944;DHT22;11136;48.778;9.126;2022-10-04T02:01:42;9.20;99.90
21944;DHT22;11136;48.778;9.126;2022-10-04T02:04:14;9.20;99.90
21944;DHT22;11136;48.778;9.126;2022-10-04T02:06:43;9.20;99.90
21944;DHT22;11136;48.778;9.126;2022-10-04T02:09:17;9.20;99.90
21944;DHT22;11136;48.778;9.126;2022-10-04T02:11:44;9.20;99.90
21944;DHT22;11136;48.778;9.126;2022-10-04T02:14:14;9.20;99.90
21944;DHT22;11136;48.778;9.126;2022-10-04T02:16:45;9.20;99.90
21944;DHT22;11136;48.778;9.126;2022-10-04T02:19:13;9.10;99.90
21944;DHT22;11136;48.778;9.126;2022-10-04T02:21:40;9.10;99.90
21944;DHT22;11136;48.778;9.126;2022-10-04T02:24:06;9.20;99.90
21944;DHT22;11136;48.778;9.126;2022-10-04T02:26:33;9.00;99.90
21944;DHT22;11136;48.778;9.126;2022-10-04T02:28:59;9.00;99.90
21944;DHT22;11136;48.778;9.126;2022-10-04T02:31:24;9.00;99.90
21944;DHT22;11136;48.778;9.126;2022-10-04T02:34:10;9.00;99.90
21944;DHT22;11136;48.778;9.126;2022-10-04T02:36:36;9.00;99.90
21944;DHT22;11136;48.778;9.126;2022-10-04T02:39:22;9.00;99.90
21944;DHT22;11136;48.778;9.126;2022-10-04T02:41:53;9.00;99.90
21944;DHT22;11136;48.778;9.126;2022-10-04T02:44:34;9.00;99.90
21944;DHT22;11136;48.778;9.126;2022-10-04T02:47:19;8.90;99.90
21944;DHT22;11136;48.778;9.126;2022-10-04T02:49:49;9.00;99.90
21944;DHT22;11136;48.778;9.126;2022-10-04T02:52:19;8.90;99.90
21944;DHT22;11136;48.778;9.126;2022-10-04T02:55:05;8.90;99.90
21944;DHT22;11136;48.778;9.126;2022-10-04T02:57:34;8.90;99.90
21944;DHT22;11136;48.778;9.126;2022-10-04T03:00:20;8.90;99.90
21944;DHT22;11136;48.778;9.126;2022-10-04T03:03:15;8.90;99.90
21944;DHT22;11136;48.778;9.126;2022-10-04T03:05:53;8.90;99.90
21944;DHT22;11136;48.778;9.126;2022-10-04T03:08:19;8.90;99.90
21944;DHT22;11136;48.778;9.126;2022-10-04T03:10:45;8.80;99.90
21944;DHT22;11136;48.778;9.126;2022-10-04T03:13:13;8.80;99.90
21944;DHT22;11136;48.778;9.126;2022-10-04T03:15:40;8.80;99.90
21944;DHT22;11136;48.778;9.126;2022-10-04T03:18:06;8.80;99.90
21944;DHT22;11136;48.778;9.126;2022-10-04T03:20:36;8.80;99.90
21944;DHT22;11136;48.778;9.126;2022-10-04T03:23:03;8.80;99.90
21944;DHT22;11136;48.778;9.126;2022-10-04T03:25:39;8.80;99.90
21944;DHT22;11136;48.778;9.126;2022-10-04T03:28:07;8.80;99.90
21944;DHT22;11136;48.778;9.126;2022-10-04T03:30:33;8.80;99.90
21944;DHT22;11136;48.778;9.126;2022-10-04T03:33:00;8.80;99.90
21944;DHT22;11136;48.778;9.126;2022-10-04T03:35:34;8.80;99.90
21944;DHT22;11136;48.778;9.126;2022-10-04T03:38:04;8.80;99.90
21944;DHT22;11136;48.778;9.126;2022-10-04T03:40:35;8.80;99.90
21944;DHT22;11136;48.778;9.126;2022-10-04T03:43:03;8.80;99.90
21944;DHT22;11136;48.778;9.126;2022-10-04T03:45:31;8.80;99.90
21944;DHT22;11136;48.778;9.126;2022-10-04T03:48:05;8.80;99.90
21944;DHT22;11136;48.778;9.126;2022-10-04T03:50:37;8.80;99.90
21944;DHT22;11136;48.778;9.126;2022-10-04T03:53:13;8.80;99.90
21944;DHT22;11136;48.778;9.126;2022-10-04T03:55:42;8.80;99.90
21944;DHT22;11136;48.778;9.126;2022-10-04T03:58:17;8.70;99.90
21944;DHT22;11136;48.778;9.126;2022-10-04T04:01:34;8.70;99.90
21944;DHT22;11136;48.778;9.126;2022-10-04T04:04:00;8.70;99.90
21944;DHT22;11136;48.778;9.126;2022-10-04T04:06:42;8.70;99.90
21944;DHT22;11136;48.778;9.126;2022-10-04T04:09:18;8.70;99.90
21944;DHT22;11136;48.778;9.126;2022-10-04T04:11:46;8.70;99.90
21944;DHT22;11136;48.778;9.126;2022-10-04T04:14:20;8.70;99.90
21944;DHT22;11136;48.778;9.126;2022-10-04T04:16:47;8.70;99.90
21944;DHT22;11136;48.778;9.126;2022-10-04T04:19:16;8.70;99.90
21944;DHT22;11136;48.778;9.126;2022-10-04T04:21:42;8.70;99.90
21944;DHT22;11136;48.778;9.126;2022-10-04T04:24:26;8.60;99.90
21944;DHT22;11136;48.778;9.126;2022-10-04T04:26:56;8.70;99.90
21944;DHT22;11136;48.778;9.126;2022-10-04T04:32:30;8.70;99.90
21944;DHT22;11136;48.778;9.126;2022-10-04T04:34:59;8.60;99.90
21944;DHT22;11136;48.778;9.126;2022-10-04T04:37:34;8.60;99.90
21944;DHT22;11136;48.778;9.126;2022-10-04T04:40:18;8.60;99.90
21944;DHT22;11136;48.778;9.126;2022-10-04T04:42:45;8.60;99.90
21944;DHT22;11136;48.778;9.126;2022-10-04T04:45:18;8.60;99.90
21944;DHT22;11136;48.778;9.126;2022-10-04T04:47:48;8.50;99.90
21944;DHT22;11136;48.778;9.126;2022-10-04T04:50:23;8.60;99.90
21944;DHT22;11136;48.778;9.126;2022-10-04T04:53:16;8.50;99.90
21944;DHT22;11136;48.778;9.126;2022-10-04T04:55:58;8.60;99.90
21944;DHT22;11136;48.778;9.126;2022-10-04T04:58:31;8.50;99.90
21944;DHT22;11136;48.778;9.126;2022-10-04T05:01:08;8.50;99.90
21944;DHT22;11136;48.778;9.126;2022-10-04T05:03:38;8.50;99.90
21944;DHT22;11136;48.778;9.126;2022-10-04T05:06:04;8.50;99.90
21944;DHT22;11136;48.778;9.126;2022-10-04T05:08:48;8.70;99.90
21944;DHT22;11136;48.778;9.126;2022-10-04T05:11:14;8.40;99.90
21944;DHT22;11136;48.778;9.126;2022-10-04T05:13:56;8.40;99.90
21944;DHT22;11136;48.778;9.126;2022-10-04T05:16:45;8.40;99.90
21944;DHT22;11136;48.778;9.126;2022-10-04T05:19:33;8.40;99.90
21944;DHT22;11136;48.778;9.126;2022-10-04T05:22:10;8.40;99.90
21944;DHT22;11136;48.778;9.126;2022-10-04T05:24:41;8.40;99.90
21944;DHT22;11136;48.778;9.126;2022-10-04T05:27:17;8.40;99.90
21944;DHT22;11136;48.778;9.126;2022-10-04T05:33:00;8.40;99.90
21944;DHT22;11136;48.778;9.126;2022-10-04T05:35:28;8.40;99.90
21944;DHT22;11136;48.778;9.126;2022-10-04T05:43:35;8.50;99.90
21944;DHT22;11136;48.778;9.126;2022-10-04T05:48:45;8.50;99.90
21944;DHT22;11136;48.778;9.126;2022-10-04T05:51:23;8.50;99.90
21944;DHT22;11136;48.778;9.126;2022-10-04T05:53:49;8.50;99.90
21944;DHT22;11136;48.778;9.126;2022-10-04T06:05:08;8.60;99.90
21944;DHT22;11136;48.778;9.126;2022-10-04T06:07:59;8.60;99.90
21944;DHT22;11136;48.778;9.126;2022-10-04T06:13:15;8.60;99.90
21944;DHT22;11136;48.778;9.126;2022-10-04T06:21:19;8.70;99.90
21944;DHT22;11136;48.778;9.126;2022-10-04T06:24:08;8.70;99.90
21944;DHT22;11136;48.778;9.126;2022-10-04T06:26:43;8.70;99.90
21944;DHT22;11136;48.778;9.126;2022-10-04T06:29:19;8.80;99.90
21944;DHT22;11136;48.778;9.126;2022-10-04T06:40:23;8.90;99.90
21944;DHT22;11136;48.778;9.126;2022-10-04T06:43:22;8.90;99.90
21944;DHT22;11136;48.778;9.126;2022-10-04T06:46:10;9.00;99.90
21944;DHT22;11136;48.778;9.126;2022-10-04T06:48:44;9.10;99.90
21944;DHT22;11136;48.778;9.126;2022-10-04T06:54:32;9.20;99.90
21944;DHT22;11136;48.778;9.126;2022-10-04T06:59:54;9.30;99.90
21944;DHT22;11136;48.778;9.126;2022-10-04T07:02:34;9.40;99.90
21944;DHT22;11136;48.778;9.126;2022-10-04T07:05:31;9.40;99.90
21944;DHT22;11136;48.778;9.126;2022-10-04T07:08:16;9.50;99.90
21944;DHT22;11136;48.778;9.126;2022-10-04T07:10:58;9.60;99.90
21944;DHT22;11136;48.778;9.126;2022-10-04T07:21:38;9.80;99.90
21944;DHT22;11136;48.778;9.126;2022-10-04T07:24:08;9.90;99.90
21944;DHT22;11136;48.778;9.126;2022-10-04T07:26:45;10.00;99.90
21944;DHT22;11136;48.778;9.126;2022-10-04T07:29:25;10.00;99.90
21944;DHT22;11136;48.778;9.126;2022-10-04T07:32:42;10.10;99.90
21944;DHT22;11136;48.778;9.126;2022-10-04T07:35:32;10.10;99.90
21944;DHT22;11136;48.778;9.126;2022-10-04T07:40:36;10.20;99.90
21944;DHT22;11136;48.778;9.126;2022-10-04T07:43:07;10.30;99.90
21944;DHT22;11136;48.778;9.126;2022-10-04T07:45:37;10.30;99.90
21944;DHT22;11136;48.778;9.126;2022-10-04T07:48:11;10.40;99.90
21944;DHT22;11136;48.778;9.126;2022-10-04T07:53:30;10.50;99.90
21944;DHT22;11136;48.778;9.126;2022-10-04T07:56:18;10.50;99.90
21944;DHT22;11136;48.778;9.126;2022-10-04T08:01:30;10.60;99.90
21944;DHT22;11136;48.778;9.126;2022-10-04T08:07:24;10.70;99.90
21944;DHT22;11136;48.778;9.126;2022-10-04T08:15:40;10.80;99.90
21944;DHT22;11136;48.778;9.126;2022-10-04T08:18:25;10.80;99.90
21944;DHT22;11136;48.778;9.126;2022-10-04T08:20:57;10.90;99.90
21944;DHT22;11136;48.778;9.126;2022-10-04T08:34:41;11.50;99.90
21944;DHT22;11136;48.778;9.126;2022-10-04T08:58:13;12.60;99.90
21944;DHT22;11136;48.778;9.126;2022-10-04T09:06:41;13.00;99.90
21944;DHT22;11136;48.778;9.126;2022-10-04T09:09:34;13.10;99.90
21944;DHT22;11136;48.778;9.126;2022-10-04T09:15:01;13.50;99.90
21944;DHT22;11136;48.778;9.126;2022-10-04T09:17:45;13.60;99.90
21944;DHT22;11136;48.778;9.126;2022-10-04T09:20:19;13.60;99.90
21944;DHT22;11136;48.778;9.126;2022-10-04T09:25:27;13.80;99.90
21944;DHT22;11136;48.778;9.126;2022-10-04T09:28:36;13.90;99.90
21944;DHT22;11136;48.778;9.126;2022-10-04T09:31:38;14.00;99.90
21944;DHT22;11136;48.778;9.126;2022-10-04T09:36:52;14.30;99.90
21944;DHT22;11136;48.778;9.126;2022-10-04T09:44:46;14.50;99.90
21944;DHT22;11136;48.778;9.126;2022-10-04T09:58:57;14.50;99.90
21944;DHT22;11136;48.778;9.126;2022-10-04T10:01:45;14.50;99.90
21944;DHT22;11136;48.778;9.126;2022-10-04T10:07:17;14.60;99.90
21944;DHT22;11136;48.778;9.126;2022-10-04T10:10:59;14.60;99.90
21944;DHT22;11136;48.778;9.126;2022-10-04T10:13:22;14.70;99.90
21944;DHT22;11136;48.778;9.126;2022-10-04T10:16:22;14.80;99.90
21944;DHT22;11136;48.778;9.126;2022-10-04T10:30:31;14.80;99.90
21944;DHT22;11136;48.778;9.126;2022-10-04T10:35:28;14.80;99.90
21944;DHT22;11136;48.778;9.126;2022-10-04T10:51:58;15.40;99.90
21944;DHT22;11136;48.778;9.126;2022-10-04T10:57:16;15.60;99.90
21944;DHT22;11136;48.778;9.126;2022-10-04T11:02:58;15.80;99.90
21944;DHT22;11136;48.778;9.126;2022-10-04T11:06:21;15.80;99.90
21944;DHT22;11136;48.778;9.126;2022-10-04T11:28:33;16.50;99.90
21944;DHT22;11136;48.778;9.126;2022-10-04T11:39:34;16.90;99.90
21944;DHT22;11136;48.778;9.126;2022-10-04T11:47:59;17.30;99.90
21944;DHT22;11136;48.778;9.126;2022-10-04T12:04:42;18.10;99.90
21944;DHT22;11136;48.778;9.126;2022-10-04T12:07:37;18.20;99.90
21944;DHT22;11136;48.778;9.126;2022-10-04T12:19:08;18.60;99.90
21944;DHT22;11136;48.778;9.126;2022-10-04T12:22:04;18.70;99.90
21944;DHT22;11136;48.778;9.126;2022-10-04T12:27:39;18.90;99.90
21944;DHT22;11136;48.778;9.126;2022-10-04T12:35:28;19.00;99.90
21944;DHT22;11136;48.778;9.126;2022-10-04T12:38:17;19.10;99.90
21944;DHT22;11136;48.778;9.126;2022-10-04T12:41:29;19.20;99.90
21944;DHT22;11136;48.778;9.126;2022-10-04T12:46:46;19.30;99.30
21944;DHT22;11136;48.778;9.126;2022-10-04T12:49:26;19.30;98.80
21944;DHT22;11136;48.778;9.126;2022-10-04T12:54:43;19.40;97.60
21944;DHT22;11136;48.778;9.126;2022-10-04T13:05:33;19.90;97.20
21944;DHT22;11136;48.778;9.126;2022-10-04T13:21:44;23.60;93.10
21944;DHT22;11136;48.778;9.126;2022-10-04T13:24:24;24.60;93.90
21944;DHT22;11136;48.778;9.126;2022-10-04T13:27:06;25.90;92.50
21944;DHT22;11136;48.778;9.126;2022-10-04T13:30:04;26.90;89.70
21944;DHT22;11136;48.778;9.126;2022-10-04T13:32:59;27.80;79.20
21944;DHT22;11136;48.778;9.126;2022-10-04T13:35:33;28.60;78.00
21944;DHT22;11136;48.778;9.126;2022-10-04T13:55:44;31.40;58.40
21944;DHT22;11136;48.778;9.126;2022-10-04T14:10:25;30.70;56.70
21944;DHT22;11136;48.778;9.126;2022-10-04T14:18:52;29.30;56.90
21944;DHT22;11136;48.778;9.126;2022-10-04T14:30:34;29.00;57.80
21944;DHT22;11136;48.778;9.126;2022-10-04T14:36:01;29.10;57.50
21944;DHT22;11136;48.778;9.126;2022-10-04T14:39:25;29.20;58.00
21944;DHT22;11136;48.778;9.126;2022-10-04T14:47:50;28.90;56.90
21944;DHT22;11136;48.778;9.126;2022-10-04T15:01:42;26.90;59.30
21944;DHT22;11136;48.778;9.126;2022-10-04T15:04:30;26.40;59.70
21944;DHT22;11136;48.778;9.126;2022-10-04T15:07:15;26.00;60.30
21944;DHT22;11136;48.778;9.126;2022-10-04T15:15:49;25.00;63.00
21944;DHT22;11136;48.778;9.126;2022-10-04T15:21:03;24.30;64.60
21944;DHT22;11136;48.778;9.126;2022-10-04T15:23:40;24.10;65.20
21944;DHT22;11136;48.778;9.126;2022-10-04T15:42:32;22.80;70.50
21944;DHT22;11136;48.778;9.126;2022-10-04T15:45:24;22.60;70.90
21944;DHT22;11136;48.778;9.126;2022-10-04T15:48:10;22.60;72.40
21944;DHT22;11136;48.778;9.126;2022-10-04T15:51:18;22.40;73.20
21944;DHT22;11136;48.778;9.126;2022-10-04T15:59:27;22.10;74.70
21944;DHT22;11136;48.778;9.126;2022-10-04T16:02:15;22.00;75.20
21944;DHT22;11136;48.778;9.126;2022-10-04T16:08:01;21.80;75.90
21944;DHT22;11136;48.778;9.126;2022-10-04T16:11:02;21.70;76.20
21944;DHT22;11136;48.778;9.126;2022-10-04T16:18:57;21.40;80.00
21944;DHT22;11136;48.778;9.126;2022-10-04T16:29:32;20.90;82.60
21944;DHT22;11136;48.778;9.126;2022-10-04T16:32:16;20.80;83.60
21944;DHT22;11136;48.778;9.126;2022-10-04T16:48:29;20.00;87.60
21944;DHT22;11136;48.778;9.126;2022-10-04T16:56:21;19.80;89.50
21944;DHT22;11136;48.778;9.126;2022-10-04T16:59:02;19.70;89.80
21944;DHT22;11136;48.778;9.126;2022-10-04T17:04:32;19.50;90.40
21944;DHT22;11136;48.778;9.126;2022-10-04T17:10:27;19.30;90.70
21944;DHT22;11136;48.778;9.126;2022-10-04T17:13:14;19.20;91.10
21944;DHT22;11136;48.778;9.126;2022-10-04T17:15:57;19.10;91.30
21944;DHT22;11136;48.778;9.126;2022-10-04T17:18:39;19.00;91.50
21944;DHT22;11136;48.778;9.126;2022-10-04T17:26:56;18.80;92.20
21944;DHT22;11136;48.778;9.126;2022-10-04T17:29:46;18.70;92.30
21944;DHT22;11136;48.778;9.126;2022-10-04T17:32:24;18.60;92.50
21944;DHT22;11136;48.778;9.126;2022-10-04T17:43:43;18.30;93.40
21944;DHT22;11136;48.778;9.126;2022-10-04T17:46:16;18.20;93.50
21944;DHT22;11136;48.778;9.126;2022-10-04T17:49:01;18.10;93.70
21944;DHT22;11136;48.778;9.126;2022-10-04T17:51:49;18.00;93.90
21944;DHT22;11136;48.778;9.126;2022-10-04T17:54:56;18.00;94.10
21944;DHT22;11136;48.778;9.126;2022-10-04T18:00:46;17.90;94.20
21944;DHT22;11136;48.778;9.126;2022-10-04T18:03:18;17.80;94.40
21944;DHT22;11136;48.778;9.126;2022-10-04T18:05:56;17.80;94.50
21944;DHT22;11136;48.778;9.126;2022-10-04T18:11:12;17.60;94.90
21944;DHT22;11136;48.778;9.126;2022-10-04T18:13:49;17.60;95.00
21944;DHT22;11136;48.778;9.126;2022-10-04T18:16:27;17.50;95.20
21944;DHT22;11136;48.778;9.126;2022-10-04T18:18:53;17.40;95.40
21944;DHT22;11136;48.778;9.126;2022-10-04T18:21:29;17.40;95.50
21944;DHT22;11136;48.778;9.126;2022-10-04T18:23:59;17.40;95.70
21944;DHT22;11136;48.778;9.126;2022-10-04T18:26:28;17.30;95.70
21944;DHT22;11136;48.778;9.126;2022-10-04T18:28:54;17.30;95.90
21944;DHT22;11136;48.778;9.126;2022-10-04T18:31:35;17.30;96.00
21944;DHT22;11136;48.778;9.126;2022-10-04T18:34:31;17.20;96.20
21944;DHT22;11136;48.778;9.126;2022-10-04T18:39:46;17.10;96.30
21944;DHT22;11136;48.778;9.126;2022-10-04T18:42:28;17.00;96.50
21944;DHT22;11136;48.778;9.126;2022-10-04T18:45:14;17.20;96.60
21944;DHT22;11136;48.778;9.126;2022-10-04T18:47:42;16.90;96.60
21944;DHT22;11136;48.778;9.126;2022-10-04T18:50:33;16.80;96.70
21944;DHT22;11136;48.778;9.126;2022-10-04T18:56:09;16.80;97.00
21944;DHT22;11136;48.778;9.126;2022-10-04T18:59:11;16.70;97.10
21944;DHT22;11136;48.778;9.126;2022-10-04T19:04:50;16.50;97.30
21944;DHT22;11136;48.778;9.126;2022-10-04T19:15:45;16.30;97.70
21944;DHT22;11136;48.778;9.126;2022-10-04T19:18:41;16.30;97.80
21944;DHT22;11136;48.778;9.126;2022-10-04T19:21:22;16.20;97.90
21944;DHT22;11136;48.778;9.126;2022-10-04T19:26:30;16.20;98.00
21944;DHT22;11136;48.778;9.126;2022-10-04T19:31:58;16.00;98.20
21944;DHT22;11136;48.778;9.126;2022-10-04T19:34:38;16.00;98.30
21944;DHT22;11136;48.778;9.126;2022-10-04T19:38:03;15.90;98.10
21944;DHT22;11136;48.778;9.126;2022-10-04T19:40:30;15.90;98.20
21944;DHT22;11136;48.778;9.126;2022-10-04T19:43:03;15.80;98.30
21944;DHT22;11136;48.778;9.126;2022-10-04T19:48:39;15.70;98.60
21944;DHT22;11136;48.778;9.126;2022-10-04T19:51:15;15.70;99.20
21944;DHT22;11136;48.778;9.126;2022-10-04T19:53:46;15.60;98.90
21944;DHT22;11136;48.778;9.126;2022-10-04T19:56:20;15.60;99.10
21944;DHT22;11136;48.778;9.126;2022-10-04T19:58:58;15.60;99.20
21944;DHT22;11136;48.778;9.126;2022-10-04T20:01:26;15.60;99.30
21944;DHT22;11136;48.778;9.126;2022-10-04T20:03:53;15.50;99.40
21944;DHT22;11136;48.778;9.126;2022-10-04T20:06:51;15.50;99.50
21944;DHT22;11136;48.778;9.126;2022-10-04T20:09:48;15.40;99.70
21944;DHT22;11136;48.778;9.126;2022-10-04T20:17:44;15.40;99.90
21944;DHT22;11136;48.778;9.126;2022-10-04T20:23:04;15.20;99.90
21944;DHT22;11136;48.778;9.126;2022-10-04T20:30:56;15.10;99.90
21944;DHT22;11136;48.778;9.126;2022-10-04T20:38:49;15.00;99.90
21944;DHT22;11136;48.778;9.126;2022-10-04T20:41:41;15.00;99.90
21944;DHT22;11136;48.778;9.126;2022-10-04T20:44:43;14.90;99.90
21944;DHT22;11136;48.778;9.126;2022-10-04T20:47:29;14.90;99.90
21944;DHT22;11136;48.778;9.126;2022-10-04T20:49:57;14.90;99.90
21944;DHT22;11136;48.778;9.126;2022-10-04T20:52:31;15.20;99.90
21944;DHT22;11136;48.778;9.126;2022-10-04T20:54:59;14.80;99.90
21944;DHT22;11136;48.778;9.126;2022-10-04T20:57:28;14.70;99.90
21944;DHT22;11136;48.778;9.126;2022-10-04T20:59:55;14.70;99.90
21944;DHT22;11136;48.778;9.126;2022-10-04T21:02:23;14.70;99.90
21944;DHT22;11136;48.778;9.126;2022-10-04T21:04:51;14.70;99.90
21944;DHT22;11136;48.778;9.126;2022-10-04T21:07:23;14.60;99.90
21944;DHT22;11136;48.778;9.126;2022-10-04T21:09:49;14.60;99.90
21944;DHT22;11136;48.778;9.126;2022-10-04T21:12:36;14.60;99.90
21944;DHT22;11136;48.778;9.126;2022-10-04T21:19:56;14.60;99.90
21944;DHT22;11136;48.778;9.126;2022-10-04T21:24:54;14.40;99.90
21944;DHT22;11136;48.778;9.126;2022-10-04T21:27:32;14.40;99.90
21944;DHT22;11136;48.778;9.126;2022-10-04T21:29:59;14.40;99.90
21944;DHT22;11136;48.778;9.126;2022-10-04T21:32:26;14.40;99.90
21944;DHT22;11136;48.778;9.126;2022-10-04T21:34:52;14.30;99.90
21944;DHT22;11136;48.778;9.126;2022-10-04T21:37:18;14.30;99.90
21944;DHT22;11136;48.778;9.126;2022-10-04T21:39:44;14.20;99.90
21944;DHT22;11136;48.778;9.126;2022-10-04T21:42:10;14.20;99.90
21944;DHT22;11136;48.778;9.126;2022-10-04T21:44:36;14.20;99.90
21944;DHT22;11136;48.778;9.126;2022-10-04T21:47:01;14.50;99.90
21944;DHT22;11136;48.778;9.126;2022-10-04T21:49:27;14.20;99.90
21944;DHT22;11136;48.778;9.126;2022-10-04T21:51:53;14.10;99.90
21944;DHT22;11136;48.778;9.126;2022-10-04T21:54:18;14.10;99.90
21944;DHT22;11136;48.778;9.126;2022-10-04T21:56:44;14.00;99.90
21944;DHT22;11136;48.778;9.126;2022-10-04T21:59:10;14.10;99.90
21944;DHT22;11136;48.778;9.126;2022-10-04T22:01:36;14.00;99.90
21944;DHT22;11136;48.778;9.126;2022-10-04T22:04:01;13.90;99.90
21944;DHT22;11136;48.778;9.126;2022-10-04T22:06:27;13.90;99.90
21944;DHT22;11136;48.778;9.126;2022-10-04T22:08:53;13.90;99.90
21944;DHT22;11136;48.778;9.126;2022-10-04T22:11:18;13.80;99.90
21944;DHT22;11136;48.778;9.126;2022-10-04T22:13:44;13.80;99.90
21944;DHT22;11136;48.778;9.126;2022-10-04T22:16:11;13.80;99.90
21944;DHT22;11136;48.778;9.126;2022-10-04T22:18:37;13.70;99.90
21944;DHT22;11136;48.778;9.126;2022-10-04T22:21:02;13.70;99.90
21944;DHT22;11136;48.778;9.126;2022-10-04T22:23:34;13.70;99.90
21944;DHT22;11136;48.778;9.126;2022-10-04T22:26:08;13.70;99.90
21944;DHT22;11136;48.778;9.126;2022-10-04T22:28:35;13.70;99.90
21944;DHT22;11136;48.778;9.126;2022-10-04T22:31:12;13.60;99.90
21944;DHT22;11136;48.778;9.126;2022-10-04T22:33:40;13.60;99.90
21944;DHT22;11136;48.778;9.126;2022-10-04T22:36:14;13.60;99.90
21944;DHT22;11136;48.778;9.126;2022-10-04T22:38:41;13.50;99.90
21944;DHT22;11136;48.778;9.126;2022-10-04T22:41:11;13.50;99.90
21944;DHT22;11136;48.778;9.126;2022-10-04T22:43:37;13.50;99.90
21944;DHT22;11136;48.778;9.126;2022-10-04T22:46:03;13.50;99.90
21944;DHT22;11136;48.778;9.126;2022-10-04T22:48:28;13.70;99.90
21944;DHT22;11136;48.778;9.126;2022-10-04T22:50:54;13.40;99.90
21944;DHT22;11136;48.778;9.126;2022-10-04T22:53:21;13.60;99.90
21944;DHT22;11136;48.778;9.126;2022-10-04T22:55:48;13.30;99.90
21944;DHT22;11136;48.778;9.126;2022-10-04T22:58:14;13.60;99.90
21944;DHT22;11136;48.778;9.126;2022-10-04T23:00:41;13.30;99.90
21944;DHT22;11136;48.778;9.126;2022-10-04T23:03:31;13.30;99.90
21944;DHT22;11136;48.778;9.126;2022-10-04T23:05:58;13.20;99.90
21944;DHT22;11136;48.778;9.126;2022-10-04T23:08:24;13.20;99.90
21944;DHT22;11136;48.778;9.126;2022-10-04T23:10:57;13.20;99.90
21944;DHT22;11136;48.778;9.126;2022-10-04T23:13:24;13.20;99.90
21944;DHT22;11136;48.778;9.126;2022-10-04T23:15:50;13.40;99.90
21944;DHT22;11136;48.778;9.126;2022-10-04T23:18:16;13.10;99.90
21944;DHT22;11136;48.778;9.126;2022-10-04T23:20:47;13.10;99.90
21944;DHT22;11136;48.778;9.126;2022-10-04T23:23:14;13.10;99.90
21944;DHT22;11136;48.778;9.126;2022-10-04T23:25:47;13.00;99.90
21944;DHT22;11136;48.778;9.126;2022-10-04T23:28:15;13.00;99.90
21944;DHT22;11136;48.778;9.126;2022-10-04T23:30:42;12.90;99.90
21944;DHT22;11136;48.778;9.126;2022-10-04T23:33:18;13.00;99.90
21944;DHT22;11136;48.778;9.126;2022-10-04T23:35:45;12.90;99.90
21944;DHT22;11136;48.778;9.126;2022-10-04T23:38:14;12.90;99.90
21944;DHT22;11136;48.778;9.126;2022-10-04T23:40:40;12.90;99.90
21944;DHT22;11136;48.778;9.126;2022-10-04T23:43:12;12.80;99.90
21944;DHT22;11136;48.778;9.126;2022-10-04T23:45:39;12.90;99.90
21944;DHT22;11136;48.778;9.126;2022-10-04T23:48:10;12.80;99.90
21944;DHT22;11136;48.778;9.126;2022-10-04T23:50:36;12.80;99.90
21944;DHT22;11136;48.778;9.126;2022-10-04T23:53:05;12.80;99.90
21944;DHT22;11136;48.778;9.126;2022-10-04T23:55:38;12.80;99.90
21944;DHT22;11136;48.778;9.126;2022-10-04T23:58:20;12.70;99.90
